sensor_id;sensor_type;location;lat;lon;timestamp;pressure;altitude;pressure_sealevel;temperature;humidity
49102;BME280;34913;47.520;19.186;2023-10-19T00:01:58;99456.19;;;8.68;71.75
49102;BME280;34913;47.520;19.186;2023-10-19T00:04:27;99456.66;;;8.73;71.33
49102;BME280;34913;47.520;19.186;2023-10-19T00:06:57;99459.78;;;8.78;70.69
49102;BME280;34913;47.520;19.186;2023-10-19T00:09:23;99453.25;;;8.82;70.13
49102;BME280;34913;47.520;19.186;2023-10-19T00:11:48;99453.56;;;8.89;70.01
49102;BME280;34913;47.520;19.186;2023-10-19T00:14:17;99441.81;;;8.82;70.16
49102;BME280;34913;47.520;19.186;2023-10-19T00:16:44;99439.03;;;8.83;70.05
49102;BME280;34913;47.520;19.186;2023-10-19T00:19:16;99450.91;;;8.89;70.10
49102;BME280;34913;47.520;19.186;2023-10-19T00:21:47;99446.34;;;8.91;69.73
49102;BME280;34913;47.520;19.186;2023-10-19T00:24:17;99434.47;;;8.85;69.84
49102;BME280;34913;47.520;19.186;2023-10-19T00:26:45;99423.81;;;8.76;69.90
49102;BME280;34913;47.520;19.186;2023-10-19T00:29:11;99419.06;;;8.70;69.91
49102;BME280;34913;47.520;19.186;2023-10-19T00:31:54;99416.41;;;8.70;70.13
49102;BME280;34913;47.520;19.186;2023-10-19T00:34:21;99413.50;;;8.73;70.82
49102;BME280;34913;47.520;19.186;2023-10-19T00:36:47;99410.19;;;8.80;70.52
49102;BME280;34913;47.520;19.186;2023-10-19T00:39:13;99409.13;;;8.92;70.13
49102;BME280;34913;47.520;19.186;2023-10-19T00:41:59;99408.97;;;8.84;70.66
49102;BME280;34913;47.520;19.186;2023-10-19T00:44:27;99408.31;;;8.92;70.03
49102;BME280;34913;47.520;19.186;2023-10-19T00:47:08;99405.78;;;8.90;70.35
49102;BME280;34913;47.520;19.186;2023-10-19T00:49:45;99395.91;;;8.92;70.27
49102;BME280;34913;47.520;19.186;2023-10-19T00:52:10;99406.44;;;9.04;69.68
49102;BME280;34913;47.520;19.186;2023-10-19T00:54:46;99400.69;;;8.99;70.44
49102;BME280;34913;47.520;19.186;2023-10-19T00:57:16;99399.09;;;8.86;70.76
49102;BME280;34913;47.520;19.186;2023-10-19T00:59:46;99386.19;;;8.72;70.80
49102;BME280;34913;47.520;19.186;2023-10-19T01:02:17;99393.34;;;8.81;71.43
49102;BME280;34913;47.520;19.186;2023-10-19T01:04:51;99380.81;;;8.83;71.23
49102;BME280;34913;47.520;19.186;2023-10-19T01:07:30;99382.75;;;8.81;71.39
49102;BME280;34913;47.520;19.186;2023-10-19T01:10:00;99368.56;;;8.82;71.17
49102;BME280;34913;47.520;19.186;2023-10-19T01:12:29;99367.91;;;8.90;71.27
49102;BME280;34913;47.520;19.186;2023-10-19T01:15:21;99361.13;;;8.76;70.84
49102;BME280;34913;47.520;19.186;2023-10-19T01:17:53;99354.69;;;8.90;71.01
49102;BME280;34913;47.520;19.186;2023-10-19T01:25:53;99357.69;;;9.06;71.22
49102;BME280;34913;47.520;19.186;2023-10-19T01:28:26;99360.47;;;9.05;71.63
49102;BME280;34913;47.520;19.186;2023-10-19T01:31:04;99360.16;;;8.98;71.15
49102;BME280;34913;47.520;19.186;2023-10-19T01:33:31;99347.19;;;8.95;72.64
49102;BME280;34913;47.520;19.186;2023-10-19T01:35:57;99342.41;;;8.89;72.61
49102;BME280;34913;47.520;19.186;2023-10-19T01:38:39;99342.50;;;8.78;73.44
49102;BME280;34913;47.520;19.186;2023-10-19T01:41:06;99347.91;;;8.76;74.83
49102;BME280;34913;47.520;19.186;2023-10-19T01:43:42;99340.38;;;8.72;76.44
49102;BME280;34913;47.520;19.186;2023-10-19T01:46:08;99340.09;;;8.75;75.71
49102;BME280;34913;47.520;19.186;2023-10-19T01:48:41;99331.19;;;8.76;76.44
49102;BME280;34913;47.520;19.186;2023-10-19T01:51:09;99325.22;;;8.74;76.42
49102;BME280;34913;47.520;19.186;2023-10-19T01:53:44;99328.56;;;8.76;76.88
49102;BME280;34913;47.520;19.186;2023-10-19T01:56:13;99319.91;;;8.74;77.62
49102;BME280;34913;47.520;19.186;2023-10-19T01:58:41;99311.81;;;8.65;78.74
49102;BME280;34913;47.520;19.186;2023-10-19T02:01:08;99306.22;;;8.68;80.33
49102;BME280;34913;47.520;19.186;2023-10-19T02:03:41;99303.06;;;8.75;80.87
49102;BME280;34913;47.520;19.186;2023-10-19T02:06:09;99302.81;;;8.78;82.50
49102;BME280;34913;47.520;19.186;2023-10-19T02:08:59;99304.03;;;8.74;82.84
49102;BME280;34913;47.520;19.186;2023-10-19T02:11:35;99295.31;;;8.83;83.96
49102;BME280;34913;47.520;19.186;2023-10-19T02:14:06;99307.81;;;8.71;86.12
49102;BME280;34913;47.520;19.186;2023-10-19T02:16:39;99308.31;;;8.65;86.42
49102;BME280;34913;47.520;19.186;2023-10-19T02:19:05;99294.63;;;8.60;86.07
49102;BME280;34913;47.520;19.186;2023-10-19T02:21:30;99288.50;;;8.59;86.85
49102;BME280;34913;47.520;19.186;2023-10-19T02:23:57;99298.41;;;8.57;87.25
49102;BME280;34913;47.520;19.186;2023-10-19T02:26:23;99301.41;;;8.53;85.74
49102;BME280;34913;47.520;19.186;2023-10-19T02:28:51;99293.47;;;8.53;86.82
49102;BME280;34913;47.520;19.186;2023-10-19T02:31:16;99296.03;;;8.54;87.65
49102;BME280;34913;47.520;19.186;2023-10-19T02:33:47;99292.78;;;8.51;89.13
49102;BME280;34913;47.520;19.186;2023-10-19T02:36:18;99286.19;;;8.45;89.51
49102;BME280;34913;47.520;19.186;2023-10-19T02:38:45;99290.78;;;8.43;91.43
49102;BME280;34913;47.520;19.186;2023-10-19T02:41:17;99279.38;;;8.43;91.29
49102;BME280;34913;47.520;19.186;2023-10-19T02:43:44;99278.53;;;8.42;92.53
49102;BME280;34913;47.520;19.186;2023-10-19T02:46:13;99281.59;;;8.37;92.98
49102;BME280;34913;47.520;19.186;2023-10-19T02:48:39;99281.59;;;8.37;93.59
49102;BME280;34913;47.520;19.186;2023-10-19T02:51:11;99275.56;;;8.35;93.73
49102;BME280;34913;47.520;19.186;2023-10-19T02:53:37;99268.72;;;8.33;93.98
49102;BME280;34913;47.520;19.186;2023-10-19T02:56:14;99269.22;;;8.27;95.11
49102;BME280;34913;47.520;19.186;2023-10-19T02:58:43;99263.63;;;8.20;96.13
49102;BME280;34913;47.520;19.186;2023-10-19T03:01:16;99263.00;;;8.07;96.17
49102;BME280;34913;47.520;19.186;2023-10-19T03:03:50;99256.41;;;8.01;97.41
49102;BME280;34913;47.520;19.186;2023-10-19T03:06:22;99247.44;;;7.93;97.48
49102;BME280;34913;47.520;19.186;2023-10-19T03:08:49;99241.47;;;7.91;98.79
49102;BME280;34913;47.520;19.186;2023-10-19T03:11:23;99238.50;;;7.84;98.87
49102;BME280;34913;47.520;19.186;2023-10-19T03:13:49;99236.50;;;7.76;100.00
49102;BME280;34913;47.520;19.186;2023-10-19T03:16:17;99226.41;;;7.70;100.00
49102;BME280;34913;47.520;19.186;2023-10-19T03:18:42;99227.75;;;7.65;100.00
49102;BME280;34913;47.520;19.186;2023-10-19T03:21:08;99218.88;;;7.66;100.00
49102;BME280;34913;47.520;19.186;2023-10-19T03:23:36;99215.53;;;7.64;100.00
49102;BME280;34913;47.520;19.186;2023-10-19T03:26:03;99216.69;;;7.71;100.00
49102;BME280;34913;47.520;19.186;2023-10-19T03:28:47;99204.75;;;7.55;100.00
49102;BME280;34913;47.520;19.186;2023-10-19T03:31:12;99198.44;;;7.47;100.00
49102;BME280;34913;47.520;19.186;2023-10-19T03:33:46;99203.34;;;7.51;100.00
49102;BME280;34913;47.520;19.186;2023-10-19T03:36:25;99203.28;;;7.63;100.00
49102;BME280;34913;47.520;19.186;2023-10-19T03:38:51;99190.28;;;7.71;100.00
49102;BME280;34913;47.520;19.186;2023-10-19T03:41:19;99189.81;;;7.66;100.00
49102;BME280;34913;47.520;19.186;2023-10-19T03:43:48;99192.09;;;7.70;100.00
49102;BME280;34913;47.520;19.186;2023-10-19T03:46:16;99203.22;;;7.74;100.00
49102;BME280;34913;47.520;19.186;2023-10-19T03:48:54;99191.72;;;7.75;100.00
49102;BME280;34913;47.520;19.186;2023-10-19T03:51:24;99189.19;;;7.73;100.00
49102;BME280;34913;47.520;19.186;2023-10-19T03:53:50;99183.31;;;7.70;100.00
49102;BME280;34913;47.520;19.186;2023-10-19T03:56:20;99181.06;;;7.65;100.00
49102;BME280;34913;47.520;19.186;2023-10-19T03:58:46;99187.59;;;7.50;100.00
49102;BME280;34913;47.520;19.186;2023-10-19T04:01:16;99180.00;;;7.68;100.00
49102;BME280;34913;47.520;19.186;2023-10-19T04:03:42;99181.13;;;7.54;100.00
49102;BME280;34913;47.520;19.186;2023-10-19T04:06:09;99173.66;;;7.59;100.00
49102;BME280;34913;47.520;19.186;2023-10-19T04:08:39;99171.53;;;7.53;100.00
49102;BME280;34913;47.520;19.186;2023-10-19T04:11:04;99175.16;;;7.52;100.00
49102;BME280;34913;47.520;19.186;2023-10-19T04:13:34;99171.47;;;7.64;100.00
49102;BME280;34913;47.520;19.186;2023-10-19T04:15:59;99178.31;;;7.67;100.00
49102;BME280;34913;47.520;19.186;2023-10-19T04:18:25;99162.66;;;7.54;100.00
49102;BME280;34913;47.520;19.186;2023-10-19T04:20:50;99147.38;;;7.37;100.00
49102;BME280;34913;47.520;19.186;2023-10-19T04:23:20;99148.34;;;7.36;100.00
49102;BME280;34913;47.520;19.186;2023-10-19T04:25:47;99152.16;;;7.43;100.00
49102;BME280;34913;47.520;19.186;2023-10-19T04:28:12;99142.31;;;7.34;100.00
49102;BME280;34913;47.520;19.186;2023-10-19T04:30:41;99139.03;;;7.20;100.00
49102;BME280;34913;47.520;19.186;2023-10-19T04:33:06;99136.53;;;7.40;100.00
49102;BME280;34913;47.520;19.186;2023-10-19T04:35:36;99132.81;;;7.42;100.00
49102;BME280;34913;47.520;19.186;2023-10-19T04:38:04;99133.13;;;7.49;100.00
49102;BME280;34913;47.520;19.186;2023-10-19T04:40:32;99133.59;;;7.54;100.00
49102;BME280;34913;47.520;19.186;2023-10-19T04:43:00;99133.47;;;7.55;100.00
49102;BME280;34913;47.520;19.186;2023-10-19T04:45:27;99122.66;;;7.59;100.00
49102;BME280;34913;47.520;19.186;2023-10-19T04:47:55;99116.47;;;7.48;100.00
49102;BME280;34913;47.520;19.186;2023-10-19T04:50:20;99121.53;;;7.40;100.00
49102;BME280;34913;47.520;19.186;2023-10-19T04:52:46;99122.72;;;7.47;100.00
49102;BME280;34913;47.520;19.186;2023-10-19T04:55:13;99124.84;;;7.53;100.00
49102;BME280;34913;47.520;19.186;2023-10-19T04:57:38;99118.72;;;7.53;100.00
49102;BME280;34913;47.520;19.186;2023-10-19T05:00:04;99119.69;;;7.52;100.00
49102;BME280;34913;47.520;19.186;2023-10-19T05:02:30;99109.97;;;7.52;100.00
49102;BME280;34913;47.520;19.186;2023-10-19T05:04:55;99107.91;;;7.35;100.00
49102;BME280;34913;47.520;19.186;2023-10-19T05:07:20;99105.94;;;7.16;100.00
49102;BME280;34913;47.520;19.186;2023-10-19T05:09:46;99102.00;;;7.11;100.00
49102;BME280;34913;47.520;19.186;2023-10-19T05:12:12;99101.28;;;7.09;100.00
49102;BME280;34913;47.520;19.186;2023-10-19T05:14:39;99095.19;;;7.08;100.00
49102;BME280;34913;47.520;19.186;2023-10-19T05:17:06;99099.13;;;7.14;100.00
49102;BME280;34913;47.520;19.186;2023-10-19T05:19:35;99097.59;;;7.11;100.00
49102;BME280;34913;47.520;19.186;2023-10-19T05:22:01;99106.34;;;7.12;100.00
49102;BME280;34913;47.520;19.186;2023-10-19T05:24:27;99112.19;;;7.15;100.00
49102;BME280;34913;47.520;19.186;2023-10-19T05:26:53;99111.22;;;7.16;100.00
49102;BME280;34913;47.520;19.186;2023-10-19T05:29:20;99107.63;;;7.17;100.00
49102;BME280;34913;47.520;19.186;2023-10-19T05:31:46;99113.03;;;7.16;100.00
49102;BME280;34913;47.520;19.186;2023-10-19T05:34:11;99109.03;;;7.21;100.00
49102;BME280;34913;47.520;19.186;2023-10-19T05:36:37;99113.94;;;7.26;100.00
49102;BME280;34913;47.520;19.186;2023-10-19T05:39:03;99114.91;;;7.25;100.00
49102;BME280;34913;47.520;19.186;2023-10-19T05:41:35;99122.78;;;7.36;100.00
49102;BME280;34913;47.520;19.186;2023-10-19T05:44:00;99117.63;;;7.35;100.00
49102;BME280;34913;47.520;19.186;2023-10-19T05:46:26;99111.13;;;7.39;100.00
49102;BME280;34913;47.520;19.186;2023-10-19T05:48:54;99108.66;;;7.47;100.00
49102;BME280;34913;47.520;19.186;2023-10-19T05:51:21;99108.53;;;7.48;100.00
49102;BME280;34913;47.520;19.186;2023-10-19T05:53:47;99096.91;;;7.51;100.00
49102;BME280;34913;47.520;19.186;2023-10-19T05:56:14;99107.66;;;7.59;100.00
49102;BME280;34913;47.520;19.186;2023-10-19T05:58:41;99106.88;;;7.47;100.00
49102;BME280;34913;47.520;19.186;2023-10-19T06:01:07;99105.53;;;7.53;100.00
49102;BME280;34913;47.520;19.186;2023-10-19T06:03:32;99107.88;;;7.56;100.00
49102;BME280;34913;47.520;19.186;2023-10-19T06:05:57;99104.50;;;7.44;100.00
49102;BME280;34913;47.520;19.186;2023-10-19T06:08:23;99099.22;;;7.44;100.00
49102;BME280;34913;47.520;19.186;2023-10-19T06:10:52;99109.50;;;7.47;100.00
49102;BME280;34913;47.520;19.186;2023-10-19T06:13:18;99111.03;;;7.50;100.00
49102;BME280;34913;47.520;19.186;2023-10-19T06:15:43;99109.28;;;7.50;100.00
49102;BME280;34913;47.520;19.186;2023-10-19T06:18:09;99107.00;;;7.46;100.00
49102;BME280;34913;47.520;19.186;2023-10-19T06:20:36;99109.00;;;7.53;100.00
49102;BME280;34913;47.520;19.186;2023-10-19T06:23:02;99098.56;;;7.52;100.00
49102;BME280;34913;47.520;19.186;2023-10-19T06:25:32;99097.47;;;7.54;100.00
49102;BME280;34913;47.520;19.186;2023-10-19T06:28:00;99093.47;;;7.60;100.00
49102;BME280;34913;47.520;19.186;2023-10-19T06:30:27;99084.59;;;7.61;100.00
49102;BME280;34913;47.520;19.186;2023-10-19T06:32:58;99086.91;;;7.75;100.00
49102;BME280;34913;47.520;19.186;2023-10-19T06:35:27;99076.75;;;7.80;100.00
49102;BME280;34913;47.520;19.186;2023-10-19T06:37:53;99077.66;;;7.91;100.00
49102;BME280;34913;47.520;19.186;2023-10-19T06:40:23;99066.91;;;7.82;100.00
49102;BME280;34913;47.520;19.186;2023-10-19T06:42:49;99066.19;;;7.80;100.00
49102;BME280;34913;47.520;19.186;2023-10-19T06:45:16;99069.59;;;7.92;100.00
49102;BME280;34913;47.520;19.186;2023-10-19T06:47:46;99061.84;;;8.00;100.00
49102;BME280;34913;47.520;19.186;2023-10-19T06:50:13;99068.94;;;8.00;100.00
49102;BME280;34913;47.520;19.186;2023-10-19T06:52:41;99061.00;;;8.00;100.00
49102;BME280;34913;47.520;19.186;2023-10-19T06:55:08;99058.31;;;7.90;100.00
49102;BME280;34913;47.520;19.186;2023-10-19T06:57:55;99080.72;;;7.96;100.00
49102;BME280;34913;47.520;19.186;2023-10-19T07:00:24;99091.59;;;8.02;100.00
49102;BME280;34913;47.520;19.186;2023-10-19T07:02:55;99083.53;;;8.04;100.00
49102;BME280;34913;47.520;19.186;2023-10-19T07:05:22;99082.88;;;8.11;100.00
49102;BME280;34913;47.520;19.186;2023-10-19T07:07:50;99066.44;;;8.08;100.00
49102;BME280;34913;47.520;19.186;2023-10-19T07:10:18;99064.91;;;8.05;100.00
49102;BME280;34913;47.520;19.186;2023-10-19T07:12:46;99053.25;;;8.18;100.00
49102;BME280;34913;47.520;19.186;2023-10-19T07:15:12;99051.31;;;8.20;100.00
49102;BME280;34913;47.520;19.186;2023-10-19T07:17:44;99051.91;;;8.23;100.00
49102;BME280;34913;47.520;19.186;2023-10-19T07:20:11;99053.41;;;8.26;100.00
49102;BME280;34913;47.520;19.186;2023-10-19T07:22:49;99046.38;;;8.36;100.00
49102;BME280;34913;47.520;19.186;2023-10-19T07:25:14;99042.91;;;8.35;100.00
49102;BME280;34913;47.520;19.186;2023-10-19T07:27:40;99040.75;;;8.29;100.00
49102;BME280;34913;47.520;19.186;2023-10-19T07:30:08;99040.25;;;8.35;100.00
49102;BME280;34913;47.520;19.186;2023-10-19T07:32:35;99031.94;;;8.40;100.00
49102;BME280;34913;47.520;19.186;2023-10-19T07:35:00;99035.69;;;8.37;100.00
49102;BME280;34913;47.520;19.186;2023-10-19T07:37:26;99040.25;;;8.45;100.00
49102;BME280;34913;47.520;19.186;2023-10-19T07:39:52;99037.66;;;8.55;100.00
49102;BME280;34913;47.520;19.186;2023-10-19T07:42:21;99041.13;;;8.55;100.00
49102;BME280;34913;47.520;19.186;2023-10-19T07:44:47;99043.94;;;8.63;100.00
49102;BME280;34913;47.520;19.186;2023-10-19T07:47:12;99031.25;;;8.67;100.00
49102;BME280;34913;47.520;19.186;2023-10-19T07:49:38;99026.09;;;8.65;100.00
49102;BME280;34913;47.520;19.186;2023-10-19T07:52:05;99020.66;;;8.57;100.00
49102;BME280;34913;47.520;19.186;2023-10-19T07:54:33;99012.88;;;8.56;100.00
49102;BME280;34913;47.520;19.186;2023-10-19T07:56:58;99000.91;;;8.61;100.00
49102;BME280;34913;47.520;19.186;2023-10-19T07:59:28;99007.28;;;8.68;100.00
49102;BME280;34913;47.520;19.186;2023-10-19T08:01:54;99004.09;;;8.65;100.00
49102;BME280;34913;47.520;19.186;2023-10-19T08:04:19;99010.53;;;8.62;100.00
49102;BME280;34913;47.520;19.186;2023-10-19T08:06:44;99002.59;;;8.62;100.00
49102;BME280;34913;47.520;19.186;2023-10-19T08:09:10;99000.78;;;8.53;100.00
49102;BME280;34913;47.520;19.186;2023-10-19T08:11:36;98994.38;;;8.56;100.00
49102;BME280;34913;47.520;19.186;2023-10-19T08:14:02;98998.97;;;8.63;100.00
49102;BME280;34913;47.520;19.186;2023-10-19T08:16:27;98983.22;;;8.52;100.00
49102;BME280;34913;47.520;19.186;2023-10-19T08:18:53;98985.31;;;8.58;100.00
49102;BME280;34913;47.520;19.186;2023-10-19T08:21:19;98981.00;;;8.67;100.00
49102;BME280;34913;47.520;19.186;2023-10-19T08:23:44;98983.91;;;8.74;100.00
49102;BME280;34913;47.520;19.186;2023-10-19T08:26:10;98976.81;;;8.64;100.00
49102;BME280;34913;47.520;19.186;2023-10-19T08:28:36;98979.63;;;8.63;100.00
49102;BME280;34913;47.520;19.186;2023-10-19T08:31:02;98975.41;;;8.60;100.00
49102;BME280;34913;47.520;19.186;2023-10-19T08:33:28;98985.19;;;8.79;100.00
49102;BME280;34913;47.520;19.186;2023-10-19T08:35:56;98983.06;;;8.92;100.00
49102;BME280;34913;47.520;19.186;2023-10-19T08:38:22;98969.41;;;8.97;100.00
49102;BME280;34913;47.520;19.186;2023-10-19T08:40:50;98975.53;;;8.98;100.00
49102;BME280;34913;47.520;19.186;2023-10-19T08:43:17;98965.78;;;8.98;100.00
49102;BME280;34913;47.520;19.186;2023-10-19T08:45:45;98965.38;;;9.03;100.00
49102;BME280;34913;47.520;19.186;2023-10-19T08:48:10;98961.19;;;9.10;100.00
49102;BME280;34913;47.520;19.186;2023-10-19T08:50:37;98964.91;;;9.27;100.00
49102;BME280;34913;47.520;19.186;2023-10-19T08:53:04;98954.28;;;9.36;100.00
49102;BME280;34913;47.520;19.186;2023-10-19T08:55:31;98950.38;;;9.40;100.00
49102;BME280;34913;47.520;19.186;2023-10-19T08:57:57;98952.56;;;9.45;100.00
49102;BME280;34913;47.520;19.186;2023-10-19T09:00:26;98954.22;;;9.46;100.00
49102;BME280;34913;47.520;19.186;2023-10-19T09:02:53;98947.69;;;9.50;100.00
49102;BME280;34913;47.520;19.186;2023-10-19T09:05:19;98944.84;;;9.61;100.00
49102;BME280;34913;47.520;19.186;2023-10-19T09:07:47;98942.59;;;9.66;100.00
49102;BME280;34913;47.520;19.186;2023-10-19T09:13:08;98943.94;;;9.70;100.00
49102;BME280;34913;47.520;19.186;2023-10-19T09:15:36;98929.53;;;9.83;100.00
49102;BME280;34913;47.520;19.186;2023-10-19T09:18:15;98927.38;;;9.96;100.00
49102;BME280;34913;47.520;19.186;2023-10-19T09:20:42;98932.59;;;9.88;100.00
49102;BME280;34913;47.520;19.186;2023-10-19T09:23:24;98930.94;;;10.04;100.00
49102;BME280;34913;47.520;19.186;2023-10-19T09:25:51;98937.00;;;10.15;100.00
49102;BME280;34913;47.520;19.186;2023-10-19T09:28:20;98929.06;;;10.15;100.00
49102;BME280;34913;47.520;19.186;2023-10-19T09:30:48;98937.59;;;10.36;100.00
49102;BME280;34913;47.520;19.186;2023-10-19T09:33:14;98929.63;;;10.54;100.00
49102;BME280;34913;47.520;19.186;2023-10-19T09:35:44;98926.00;;;10.37;100.00
49102;BME280;34913;47.520;19.186;2023-10-19T09:38:11;98920.69;;;10.37;100.00
49102;BME280;34913;47.520;19.186;2023-10-19T09:40:37;98917.72;;;10.58;100.00
49102;BME280;34913;47.520;19.186;2023-10-19T09:43:05;98908.44;;;10.80;100.00
49102;BME280;34913;47.520;19.186;2023-10-19T09:45:37;98910.53;;;10.94;99.34
49102;BME280;34913;47.520;19.186;2023-10-19T09:48:07;98908.75;;;11.03;98.98
49102;BME280;34913;47.520;19.186;2023-10-19T09:50:34;98907.09;;;11.02;99.40
49102;BME280;34913;47.520;19.186;2023-10-19T09:53:00;98902.94;;;10.99;99.46
49102;BME280;34913;47.520;19.186;2023-10-19T09:55:34;98900.63;;;11.04;99.43
49102;BME280;34913;47.520;19.186;2023-10-19T09:58:12;98895.06;;;11.15;99.25
49102;BME280;34913;47.520;19.186;2023-10-19T10:00:43;98893.13;;;11.26;98.35
49102;BME280;34913;47.520;19.186;2023-10-19T10:06:08;98877.88;;;11.28;99.17
49102;BME280;34913;47.520;19.186;2023-10-19T10:08:35;98867.25;;;11.28;99.39
49102;BME280;34913;47.520;19.186;2023-10-19T10:11:31;98863.19;;;11.50;98.58
49102;BME280;34913;47.520;19.186;2023-10-19T10:13:57;98863.69;;;11.53;98.12
49102;BME280;34913;47.520;19.186;2023-10-19T10:16:27;98870.00;;;11.52;98.47
49102;BME280;34913;47.520;19.186;2023-10-19T10:18:56;98860.41;;;11.67;98.31
49102;BME280;34913;47.520;19.186;2023-10-19T10:21:25;98854.28;;;11.67;98.00
49102;BME280;34913;47.520;19.186;2023-10-19T10:23:56;98843.97;;;11.64;98.22
49102;BME280;34913;47.520;19.186;2023-10-19T10:26:24;98846.31;;;11.75;98.13
49102;BME280;34913;47.520;19.186;2023-10-19T10:31:46;98823.31;;;12.00;96.82
49102;BME280;34913;47.520;19.186;2023-10-19T10:37:07;98812.81;;;12.55;98.11
49102;BME280;34913;47.520;19.186;2023-10-19T10:39:38;98801.19;;;12.65;94.84
49102;BME280;34913;47.520;19.186;2023-10-19T10:42:09;98799.50;;;12.80;93.52
49102;BME280;34913;47.520;19.186;2023-10-19T10:44:44;98792.78;;;12.92;93.41
49102;BME280;34913;47.520;19.186;2023-10-19T10:47:17;98798.47;;;12.89;93.84
49102;BME280;34913;47.520;19.186;2023-10-19T10:49:47;98795.44;;;13.00;92.38
49102;BME280;34913;47.520;19.186;2023-10-19T10:52:43;98796.09;;;13.02;92.65
49102;BME280;34913;47.520;19.186;2023-10-19T10:55:10;98800.63;;;12.85;92.99
49102;BME280;34913;47.520;19.186;2023-10-19T10:57:37;98795.81;;;12.89;94.14
49102;BME280;34913;47.520;19.186;2023-10-19T11:00:05;98791.13;;;12.91;93.95
49102;BME280;34913;47.520;19.186;2023-10-19T11:02:37;98773.66;;;12.97;94.36
49102;BME280;34913;47.520;19.186;2023-10-19T11:05:08;98777.44;;;13.02;93.59
49102;BME280;34913;47.520;19.186;2023-10-19T11:07:37;98769.81;;;12.99;93.18
49102;BME280;34913;47.520;19.186;2023-10-19T11:10:03;98773.44;;;13.06;94.23
49102;BME280;34913;47.520;19.186;2023-10-19T11:12:28;98762.75;;;12.59;93.71
49102;BME280;34913;47.520;19.186;2023-10-19T11:14:56;98759.44;;;12.65;96.14
49102;BME280;34913;47.520;19.186;2023-10-19T11:17:24;98757.66;;;12.97;96.54
49102;BME280;34913;47.520;19.186;2023-10-19T11:19:54;98754.09;;;13.12;94.58
49102;BME280;34913;47.520;19.186;2023-10-19T11:22:21;98751.72;;;13.18;92.84
49102;BME280;34913;47.520;19.186;2023-10-19T11:24:47;98752.69;;;13.33;94.01
49102;BME280;34913;47.520;19.186;2023-10-19T11:27:12;98734.91;;;13.25;92.45
49102;BME280;34913;47.520;19.186;2023-10-19T11:29:38;98743.78;;;13.49;93.45
49102;BME280;34913;47.520;19.186;2023-10-19T11:32:03;98746.63;;;13.47;91.07
49102;BME280;34913;47.520;19.186;2023-10-19T11:34:29;98724.88;;;13.58;93.09
49102;BME280;34913;47.520;19.186;2023-10-19T11:36:58;98740.22;;;13.56;90.91
49102;BME280;34913;47.520;19.186;2023-10-19T11:39:28;98746.16;;;13.66;91.31
49102;BME280;34913;47.520;19.186;2023-10-19T11:41:54;98725.84;;;13.65;90.81
49102;BME280;34913;47.520;19.186;2023-10-19T11:44:19;98724.22;;;13.56;91.09
49102;BME280;34913;47.520;19.186;2023-10-19T11:46:45;98738.66;;;13.70;90.76
49102;BME280;34913;47.520;19.186;2023-10-19T11:49:10;98714.13;;;13.75;90.36
49102;BME280;34913;47.520;19.186;2023-10-19T11:51:37;98701.72;;;13.82;92.29
49102;BME280;34913;47.520;19.186;2023-10-19T11:54:04;98724.38;;;13.86;91.18
49102;BME280;34913;47.520;19.186;2023-10-19T11:56:31;98719.78;;;13.94;89.71
49102;BME280;34913;47.520;19.186;2023-10-19T11:58:56;98705.69;;;13.86;91.72
49102;BME280;34913;47.520;19.186;2023-10-19T12:01:22;98711.22;;;13.84;89.85
49102;BME280;34913;47.520;19.186;2023-10-19T12:03:47;98712.38;;;13.82;90.67
49102;BME280;34913;47.520;19.186;2023-10-19T12:06:13;98701.31;;;13.70;92.00
49102;BME280;34913;47.520;19.186;2023-10-19T12:08:44;98688.69;;;13.87;90.18
49102;BME280;34913;47.520;19.186;2023-10-19T12:11:09;98684.28;;;13.94;91.61
49102;BME280;34913;47.520;19.186;2023-10-19T12:13:42;98687.84;;;13.86;90.51
49102;BME280;34913;47.520;19.186;2023-10-19T12:16:14;98675.22;;;13.80;92.40
49102;BME280;34913;47.520;19.186;2023-10-19T12:18:44;98668.41;;;14.01;91.58
49102;BME280;34913;47.520;19.186;2023-10-19T12:21:10;98659.94;;;14.12;91.87
49102;BME280;34913;47.520;19.186;2023-10-19T12:23:43;98660.25;;;14.32;91.78
49102;BME280;34913;47.520;19.186;2023-10-19T12:26:09;98657.97;;;14.58;89.75
49102;BME280;34913;47.520;19.186;2023-10-19T12:28:39;98642.47;;;14.68;87.48
49102;BME280;34913;47.520;19.186;2023-10-19T12:31:06;98659.81;;;14.58;87.73
49102;BME280;34913;47.520;19.186;2023-10-19T12:33:34;98641.94;;;14.58;87.37
49102;BME280;34913;47.520;19.186;2023-10-19T12:36:00;98643.88;;;14.49;88.63
49102;BME280;34913;47.520;19.186;2023-10-19T12:38:25;98642.09;;;14.42;88.57
49102;BME280;34913;47.520;19.186;2023-10-19T12:40:51;98636.13;;;14.40;89.28
49102;BME280;34913;47.520;19.186;2023-10-19T12:43:18;98635.03;;;14.34;90.07
49102;BME280;34913;47.520;19.186;2023-10-19T12:45:50;98633.75;;;14.30;90.70
49102;BME280;34913;47.520;19.186;2023-10-19T12:48:19;98630.88;;;14.32;90.60
49102;BME280;34913;47.520;19.186;2023-10-19T12:50:45;98636.47;;;14.37;91.52
49102;BME280;34913;47.520;19.186;2023-10-19T12:53:10;98623.03;;;14.45;90.57
49102;BME280;34913;47.520;19.186;2023-10-19T12:55:36;98621.97;;;14.39;91.36
49102;BME280;34913;47.520;19.186;2023-10-19T12:58:04;98621.13;;;14.39;91.18
49102;BME280;34913;47.520;19.186;2023-10-19T13:00:34;98612.56;;;14.43;92.10
49102;BME280;34913;47.520;19.186;2023-10-19T13:03:07;98622.09;;;14.46;91.68
49102;BME280;34913;47.520;19.186;2023-10-19T13:05:36;98619.47;;;14.52;92.13
49102;BME280;34913;47.520;19.186;2023-10-19T13:08:04;98608.03;;;14.44;90.97
49102;BME280;34913;47.520;19.186;2023-10-19T13:10:31;98616.16;;;14.36;90.95
49102;BME280;34913;47.520;19.186;2023-10-19T13:13:08;98607.78;;;14.39;91.49
49102;BME280;34913;47.520;19.186;2023-10-19T13:15:38;98600.13;;;14.65;91.40
49102;BME280;34913;47.520;19.186;2023-10-19T13:18:05;98598.78;;;14.55;89.88